Time;durP1;ratioP1;P1;durP2;ratioP2;P2;SDS_P1;SDS_P2;PMS_P1;PMS_P2;Temp;Humidity;BMP_temperature;BMP_pressure;BME280_temperature;BME280_humidity;BME280_pressure;Samples;Min_cycle;Max_cycle;Signal;HPM_P1;HPM_P2
2021/06/17 00:01:44;;;;;;;1.45;0.85;;;;;;;;;;4949299;28;20070;-79
2021/06/17 00:04:11;;;;;;;1.38;0.90;;;;;;;;;;4949995;28;20074;-79
2021/06/17 00:06:37;;;;;;;2.28;1.08;;;;;;;;;;4950527;28;20063;-80
2021/06/17 00:09:05;;;;;;;1.67;1.00;;;;;;;;;;4947721;28;20083;-79
2021/06/17 00:11:31;;;;;;;2.20;1.00;;;;;;;;;;4934479;28;20055;-79
2021/06/17 00:13:57;;;;;;;1.98;1.05;;;;;;;;;;4951975;28;20070;-80
2021/06/17 00:16:24;;;;;;;2.40;0.90;;;;;;;;;;4960965;28;20067;-80
2021/06/17 00:18:50;;;;;;;1.23;0.90;;;;;;;;;;4947882;28;20299;-80
2021/06/17 00:21:17;;;;;;;2.03;1.20;;;;;;;;;;4940268;28;20063;-80
2021/06/17 00:23:44;;;;;;;2.38;0.90;;;;;;;;;;4927503;28;20080;-80
2021/06/17 00:26:10;;;;;;;1.65;0.90;;;;;;;;;;4945819;28;20500;-80
2021/06/17 00:28:36;;;;;;;2.28;1.00;;;;;;;;;;4957709;28;20085;-80
2021/06/17 00:31:03;;;;;;;1.77;0.88;;;;;;;;;;4959307;28;20141;-79
2021/06/17 00:33:29;;;;;;;2.10;0.98;;;;;;;;;;4952749;28;20081;-80
2021/06/17 00:35:56;;;;;;;1.52;0.98;;;;;;;;;;4955629;28;20067;-80
2021/06/17 00:38:22;;;;;;;1.63;0.90;;;;;;;;;;4951889;28;20055;-80
2021/06/17 00:40:51;;;;;;;3.75;1.10;;;;;;;;;;4950515;28;20481;-80
2021/06/17 00:43:17;;;;;;;1.80;1.10;;;;;;;;;;4946206;28;20460;-81
2021/06/17 00:45:45;;;;;;;2.08;1.05;;;;;;;;;;4950705;28;20122;-80
2021/06/17 00:48:12;;;;;;;3.30;1.00;;;;;;;;;;4948107;28;20131;-80
2021/06/17 00:50:46;;;;;;;2.58;1.05;;;;;;;;;;4946881;28;20181;-80
2021/06/17 00:53:17;;;;;;;1.45;1.00;;;;;;;;;;4950851;28;20079;-79
2021/06/17 00:55:45;;;;;;;1.42;0.90;;;;;;;;;;4947438;28;20148;-80
2021/06/17 00:58:11;;;;;;;1.48;0.70;;;;;;;;;;4952823;28;20462;-78
2021/06/17 01:00:41;;;;;;;2.22;1.00;;;;;;;;;;4946822;28;20031;-80
2021/06/17 01:03:07;;;;;;;3.03;1.08;;;;;;;;;;4951241;28;20113;-80
2021/06/17 01:05:34;;;;;;;1.42;0.90;;;;;;;;;;4950522;28;20071;-80
2021/06/17 01:08:04;;;;;;;1.85;0.90;;;;;;;;;;4954961;28;20063;-81
2021/06/17 01:10:31;;;;;;;2.13;1.05;;;;;;;;;;4944030;28;20070;-80
2021/06/17 01:12:57;;;;;;;1.77;1.00;;;;;;;;;;4946596;28;20122;-80
2021/06/17 01:15:24;;;;;;;1.50;0.93;;;;;;;;;;4949437;28;20063;-81
2021/06/17 01:18:01;;;;;;;2.30;1.10;;;;;;;;;;4947131;28;21301;-80
2021/06/17 01:20:29;;;;;;;1.70;1.10;;;;;;;;;;4934523;28;20091;-79
2021/06/17 01:23:23;;;;;;;1.52;0.90;;;;;;;;;;4929722;28;20079;-81
2021/06/17 01:25:50;;;;;;;1.23;0.90;;;;;;;;;;4958301;28;20817;-80
2021/06/17 01:28:17;;;;;;;0.98;0.82;;;;;;;;;;4945886;28;20059;-80
2021/06/17 01:30:43;;;;;;;2.83;1.20;;;;;;;;;;4947233;28;20074;-80
2021/06/17 01:33:10;;;;;;;2.03;0.70;;;;;;;;;;4948428;28;20065;-80
2021/06/17 01:35:39;;;;;;;1.63;1.00;;;;;;;;;;4953865;28;20574;-80
2021/06/17 01:38:07;;;;;;;1.20;0.82;;;;;;;;;;4947114;28;20061;-80
2021/06/17 01:40:34;;;;;;;2.25;1.00;;;;;;;;;;4945942;28;20058;-79
2021/06/17 01:43:02;;;;;;;1.90;1.13;;;;;;;;;;4943905;28;20126;-80
2021/06/17 01:45:28;;;;;;;1.45;0.90;;;;;;;;;;4945738;28;20059;-80
2021/06/17 01:47:55;;;;;;;1.80;1.15;;;;;;;;;;4936642;28;20570;-81
2021/06/17 01:50:24;;;;;;;3.33;1.17;;;;;;;;;;4926275;28;20123;-80
2021/06/17 01:52:54;;;;;;;1.58;1.00;;;;;;;;;;4942310;28;20377;-81
2021/06/17 01:55:22;;;;;;;2.15;1.05;;;;;;;;;;4948246;28;20138;-80
2021/06/17 01:57:49;;;;;;;1.58;0.90;;;;;;;;;;4938499;28;20067;-80
2021/06/17 02:00:15;;;;;;;1.77;0.90;;;;;;;;;;4933541;28;20082;-80
2021/06/17 02:02:43;;;;;;;2.72;0.90;;;;;;;;;;4947009;28;20579;-80
2021/06/17 02:05:09;;;;;;;1.95;0.98;;;;;;;;;;4946569;28;20062;-80
2021/06/17 02:07:40;;;;;;;3.28;1.35;;;;;;;;;;4936987;28;20554;-81
2021/06/17 02:10:07;;;;;;;2.08;0.90;;;;;;;;;;4956145;28;20117;-79
2021/06/17 02:12:34;;;;;;;1.50;0.90;;;;;;;;;;4941890;28;20066;-81
2021/06/17 02:15:00;;;;;;;1.33;0.90;;;;;;;;;;4939354;28;20151;-81
2021/06/17 02:17:28;;;;;;;1.27;0.80;;;;;;;;;;4945475;28;20094;-80
2021/06/17 02:19:54;;;;;;;1.65;0.90;;;;;;;;;;4950700;28;20083;-80
2021/06/17 02:22:21;;;;;;;0.77;0.70;;;;;;;;;;4945025;28;20500;-80
2021/06/17 02:24:51;;;;;;;1.63;0.90;;;;;;;;;;4946067;28;20603;-80
2021/06/17 02:27:21;;;;;;;1.45;1.00;;;;;;;;;;4941731;28;20067;-79
2021/06/17 02:30:00;;;;;;;1.63;0.80;;;;;;;;;;4942623;28;20066;-79
2021/06/17 02:32:26;;;;;;;2.10;0.90;;;;;;;;;;4946424;28;20114;-79
2021/06/17 02:34:53;;;;;;;2.30;1.00;;;;;;;;;;4947725;28;20062;-80
2021/06/17 02:37:20;;;;;;;2.35;1.05;;;;;;;;;;4940190;28;20040;-81
2021/06/17 02:39:48;;;;;;;2.53;1.20;;;;;;;;;;4947789;28;20121;-80
2021/06/17 02:42:16;;;;;;;2.08;0.93;;;;;;;;;;4943244;28;20126;-80
2021/06/17 02:44:43;;;;;;;2.22;0.90;;;;;;;;;;4934398;28;20060;-80
2021/06/17 02:47:10;;;;;;;1.80;0.95;;;;;;;;;;4937484;28;20173;-79
2021/06/17 02:49:38;;;;;;;1.50;1.00;;;;;;;;;;4939822;28;20130;-79
2021/06/17 02:52:05;;;;;;;1.42;0.93;;;;;;;;;;4940705;28;20137;-79
2021/06/17 02:54:31;;;;;;;3.03;1.10;;;;;;;;;;4946080;28;20039;-79
2021/06/17 02:57:00;;;;;;;1.70;1.05;;;;;;;;;;4946960;28;20055;-80
2021/06/17 02:59:44;;;;;;;1.23;0.90;;;;;;;;;;4940826;28;20071;-79
2021/06/17 03:02:15;;;;;;;1.40;0.90;;;;;;;;;;4938167;28;20059;-81
2021/06/17 03:04:42;;;;;;;;;;;;;;;;;;4937657;28;20071;-80
2021/06/17 03:07:12;;;;;;;1.40;0.90;;;;;;;;;;4933623;28;19946;-80
2021/06/17 03:09:42;;;;;;;2.37;1.00;;;;;;;;;;4949730;28;20063;-81
2021/06/17 03:12:10;;;;;;;1.83;1.05;;;;;;;;;;4940597;28;20067;-81
2021/06/17 03:14:38;;;;;;;2.65;1.33;;;;;;;;;;4940753;28;20113;-80
2021/06/17 03:17:06;;;;;;;1.67;1.02;;;;;;;;;;4945782;28;20122;-81
2021/06/17 03:19:33;;;;;;;1.33;1.02;;;;;;;;;;4942023;28;20098;-81
2021/06/17 03:22:01;;;;;;;1.30;1.08;;;;;;;;;;4947154;28;20054;-80
2021/06/17 03:24:29;;;;;;;1.77;1.00;;;;;;;;;;4945758;28;20067;-80
2021/06/17 03:26:56;;;;;;;1.38;0.90;;;;;;;;;;4946451;28;20055;-80
2021/06/17 03:29:26;;;;;;;1.95;0.85;;;;;;;;;;4946987;28;20070;-80
2021/06/17 03:31:55;;;;;;;1.77;1.08;;;;;;;;;;4947201;28;22334;-80
2021/06/17 03:34:24;;;;;;;1.90;1.20;;;;;;;;;;4924847;28;20074;-81
2021/06/17 03:36:52;;;;;;;3.28;1.20;;;;;;;;;;4967337;28;20059;-80
2021/06/17 03:39:19;;;;;;;1.95;1.15;;;;;;;;;;4943472;28;20138;-80
2021/06/17 03:41:46;;;;;;;2.30;0.95;;;;;;;;;;4944948;28;20173;-80
2021/06/17 03:44:15;;;;;;;2.75;1.30;;;;;;;;;;4946776;28;20720;-80
2021/06/17 03:46:42;;;;;;;2.17;1.15;;;;;;;;;;4945540;28;20046;-80
2021/06/17 03:49:09;;;;;;;2.67;1.00;;;;;;;;;;4943712;28;20063;-81
2021/06/17 03:51:38;;;;;;;2.15;1.02;;;;;;;;;;4933919;28;20063;-81
2021/06/17 03:54:05;;;;;;;2.15;1.05;;;;;;;;;;4938637;28;20091;-81
2021/06/17 03:56:31;;;;;;;1.88;1.00;;;;;;;;;;4945726;28;20054;-79
2021/06/17 03:58:58;;;;;;;2.25;1.08;;;;;;;;;;4943953;28;20067;-81
2021/06/17 04:01:25;;;;;;;3.45;1.15;;;;;;;;;;4946050;28;20067;-81
2021/06/17 04:03:51;;;;;;;1.92;1.00;;;;;;;;;;4944009;28;20533;-82
2021/06/17 04:06:18;;;;;;;2.13;1.17;;;;;;;;;;4939458;28;20059;-81
2021/06/17 04:08:54;;;;;;;1.77;1.00;;;;;;;;;;4945677;28;20055;-81
2021/06/17 04:11:22;;;;;;;1.92;1.10;;;;;;;;;;4939779;28;20070;-81
2021/06/17 04:13:50;;;;;;;2.55;1.10;;;;;;;;;;4947873;28;20067;-80
2021/06/17 04:16:21;;;;;;;2.33;1.10;;;;;;;;;;4952242;28;20527;-82
2021/06/17 04:18:48;;;;;;;1.60;1.10;;;;;;;;;;4945209;28;20467;-78
2021/06/17 04:21:15;;;;;;;1.98;1.10;;;;;;;;;;4944809;28;20094;-78
2021/06/17 04:23:42;;;;;;;1.75;1.10;;;;;;;;;;4929583;28;20099;-78
2021/06/17 04:26:09;;;;;;;2.13;1.08;;;;;;;;;;4932935;28;20071;-80
2021/06/17 04:28:36;;;;;;;1.73;1.02;;;;;;;;;;4928453;28;20480;-80
2021/06/17 04:31:03;;;;;;;3.03;1.20;;;;;;;;;;4930289;28;20567;-81
2021/06/17 04:33:29;;;;;;;2.78;1.10;;;;;;;;;;4934783;28;20044;-81
2021/06/17 04:35:59;;;;;;;2.53;1.17;;;;;;;;;;4932276;28;20546;-79
2021/06/17 04:38:26;;;;;;;2.55;1.33;;;;;;;;;;4946826;28;20063;-81
2021/06/17 04:40:53;;;;;;;3.58;1.40;;;;;;;;;;4946462;28;21390;-80
2021/06/17 04:43:23;;;;;;;3.53;1.27;;;;;;;;;;4947142;28;20070;-82
2021/06/17 04:45:51;;;;;;;2.28;1.30;;;;;;;;;;4945071;28;20091;-81
2021/06/17 04:48:18;;;;;;;2.30;1.10;;;;;;;;;;4945536;28;20064;-82
2021/06/17 04:50:45;;;;;;;1.98;1.25;;;;;;;;;;4946372;28;20070;-80
2021/06/17 04:53:13;;;;;;;3.88;1.67;;;;;;;;;;4943660;28;20062;-83
2021/06/17 04:55:52;;;;;;;2.25;1.20;;;;;;;;;;4955650;28;20070;-80
2021/06/17 04:58:20;;;;;;;3.03;1.38;;;;;;;;;;4947470;28;20078;-81
2021/06/17 05:00:46;;;;;;;2.13;1.30;;;;;;;;;;4949125;28;21248;-81
2021/06/17 05:03:13;;;;;;;3.03;1.40;;;;;;;;;;4946468;28;20070;-81
2021/06/17 05:05:39;;;;;;;2.10;1.10;;;;;;;;;;4947792;28;20109;-81
2021/06/17 05:10:48;;;;;;;2.90;1.10;;;;;;;;;;4946878;28;20078;-81
2021/06/17 05:13:33;;;;;;;3.85;1.40;;;;;;;;;;4947982;28;20110;-79
2021/06/17 05:16:00;;;;;;;3.72;1.27;;;;;;;;;;4938972;28;21174;-80
2021/06/17 05:18:28;;;;;;;3.78;1.30;;;;;;;;;;4945169;28;20074;-80
2021/06/17 05:20:54;;;;;;;3.53;1.60;;;;;;;;;;4946824;28;20055;-81
2021/06/17 05:23:22;;;;;;;2.58;1.23;;;;;;;;;;4952956;28;20094;-81
2021/06/17 05:25:49;;;;;;;2.72;1.27;;;;;;;;;;4947211;28;20495;-80
2021/06/17 05:28:17;;;;;;;1.98;1.20;;;;;;;;;;4946760;28;20066;-80
2021/06/17 05:30:45;;;;;;;2.40;1.30;;;;;;;;;;4936648;28;20070;-81
2021/06/17 05:33:11;;;;;;;3.35;1.40;;;;;;;;;;4959320;28;20495;-80
2021/06/17 05:35:38;;;;;;;3.15;1.48;;;;;;;;;;4948360;28;20507;-81
2021/06/17 05:38:05;;;;;;;2.15;1.33;;;;;;;;;;4951648;28;20054;-81
2021/06/17 05:40:32;;;;;;;3.42;1.35;;;;;;;;;;4953268;28;20569;-81
2021/06/17 05:42:58;;;;;;;2.22;1.20;;;;;;;;;;4955179;28;20090;-81
2021/06/17 05:45:25;;;;;;;4.82;1.20;;;;;;;;;;4948737;28;20055;-80
2021/06/17 05:47:51;;;;;;;3.13;1.55;;;;;;;;;;4948125;28;20063;-81
2021/06/17 05:50:18;;;;;;;2.90;1.10;;;;;;;;;;4946933;28;20070;-80
2021/06/17 05:52:45;;;;;;;2.92;1.40;;;;;;;;;;4946633;28;20062;-81
2021/06/17 05:55:11;;;;;;;2.38;1.35;;;;;;;;;;4949049;28;20101;-81
2021/06/17 05:57:38;;;;;;;1.50;1.15;;;;;;;;;;4927561;28;20150;-81
2021/06/17 06:00:06;;;;;;;3.22;1.10;;;;;;;;;;4940955;28;20051;-81
2021/06/17 06:02:32;;;;;;;2.60;1.23;;;;;;;;;;4928622;28;20075;-81
2021/06/17 06:04:58;;;;;;;2.72;1.40;;;;;;;;;;4932148;28;20074;-82
2021/06/17 06:07:25;;;;;;;2.33;1.20;;;;;;;;;;4946885;28;20602;-80
2021/06/17 06:09:51;;;;;;;2.17;1.40;;;;;;;;;;4943037;28;20083;-79
2021/06/17 06:12:18;;;;;;;2.70;1.20;;;;;;;;;;4927975;28;20067;-80
2021/06/17 06:14:44;;;;;;;1.95;1.02;;;;;;;;;;4927047;28;20074;-80
2021/06/17 06:17:11;;;;;;;2.17;1.15;;;;;;;;;;4923028;28;20116;-79
2021/06/17 06:19:38;;;;;;;1.92;1.10;;;;;;;;;;4928757;28;20070;-80
2021/06/17 06:22:05;;;;;;;2.10;1.20;;;;;;;;;;4941662;28;20063;-80
2021/06/17 06:24:35;;;;;;;2.63;1.13;;;;;;;;;;4946943;28;20075;-80
2021/06/17 06:27:03;;;;;;;1.92;1.08;;;;;;;;;;4946457;28;20062;-79
2021/06/17 06:29:29;;;;;;;2.00;1.20;;;;;;;;;;4945146;28;20111;-79
2021/06/17 06:31:56;;;;;;;1.85;1.23;;;;;;;;;;4935161;28;20499;-80
2021/06/17 06:34:23;;;;;;;2.97;1.23;;;;;;;;;;4955105;28;20096;-80
2021/06/17 06:36:50;;;;;;;1.83;1.10;;;;;;;;;;4946338;28;20125;-80
2021/06/17 06:39:17;;;;;;;1.27;1.00;;;;;;;;;;4945722;28;20058;-78
2021/06/17 06:41:44;;;;;;;2.28;1.10;;;;;;;;;;4945100;28;20066;-78
2021/06/17 06:44:10;;;;;;;2.70;1.13;;;;;;;;;;4949376;28;20059;-77
2021/06/17 06:46:38;;;;;;;1.80;1.27;;;;;;;;;;4945154;28;20070;-78
2021/06/17 06:49:05;;;;;;;1.10;0.90;;;;;;;;;;4950085;28;20070;-78
2021/06/17 06:51:34;;;;;;;2.28;1.27;;;;;;;;;;4938800;28;20636;-79
2021/06/17 06:54:00;;;;;;;2.83;1.30;;;;;;;;;;4947094;28;20074;-79
2021/06/17 06:56:26;;;;;;;3.65;1.50;;;;;;;;;;4948255;28;20579;-77
2021/06/17 06:58:53;;;;;;;2.33;1.10;;;;;;;;;;4925898;28;20059;-79
2021/06/17 07:01:20;;;;;;;2.45;1.15;;;;;;;;;;4924144;29;20578;-80
2021/06/17 07:03:46;;;;;;;2.45;1.23;;;;;;;;;;4926211;28;20071;-79
2021/06/17 07:06:13;;;;;;;2.55;1.08;;;;;;;;;;4925407;29;20051;-79
2021/06/17 07:08:39;;;;;;;1.75;1.13;;;;;;;;;;4925445;28;20078;-79
2021/06/17 07:11:06;;;;;;;2.30;1.60;;;;;;;;;;4927539;28;20059;-79
2021/06/17 07:13:32;;;;;;;3.55;1.38;;;;;;;;;;4927127;28;20051;-79
2021/06/17 07:15:59;;;;;;;2.72;1.30;;;;;;;;;;4946057;28;20059;-79
2021/06/17 07:18:26;;;;;;;2.60;1.50;;;;;;;;;;4888459;28;20075;-80
2021/06/17 07:20:52;;;;;;;3.63;1.55;;;;;;;;;;4943023;28;20308;-80
2021/06/17 07:23:18;;;;;;;2.85;1.50;;;;;;;;;;4946618;28;20527;-80
2021/06/17 07:25:45;;;;;;;3.15;1.48;;;;;;;;;;4942086;28;20066;-80
2021/06/17 07:28:11;;;;;;;2.55;1.40;;;;;;;;;;4947018;28;20059;-79
2021/06/17 07:30:37;;;;;;;2.45;1.38;;;;;;;;;;4950987;28;20837;-79
2021/06/17 07:33:04;;;;;;;2.85;1.45;;;;;;;;;;4946879;28;20059;-80
2021/06/17 07:35:30;;;;;;;4.10;1.83;;;;;;;;;;4944703;28;20075;-79
2021/06/17 07:37:57;;;;;;;6.88;2.00;;;;;;;;;;4944374;28;20066;-79
2021/06/17 07:40:23;;;;;;;3.05;1.70;;;;;;;;;;4945769;28;20065;-79
2021/06/17 07:42:50;;;;;;;2.55;1.55;;;;;;;;;;4944365;28;20086;-79
2021/06/17 07:45:16;;;;;;;2.55;1.70;;;;;;;;;;4944854;28;20070;-80
2021/06/17 07:47:42;;;;;;;4.65;1.70;;;;;;;;;;4946325;28;20207;-80
2021/06/17 07:50:11;;;;;;;2.70;1.60;;;;;;;;;;4951236;28;20058;-80
2021/06/17 07:52:37;;;;;;;2.00;1.40;;;;;;;;;;4948620;28;20646;-80
2021/06/17 07:55:07;;;;;;;3.15;1.58;;;;;;;;;;4948640;28;20546;-79
2021/06/17 07:57:33;;;;;;;2.30;1.60;;;;;;;;;;4947038;28;20479;-79
2021/06/17 08:00:00;;;;;;;5.20;1.58;;;;;;;;;;4950656;28;20066;-80
2021/06/17 08:02:26;;;;;;;3.65;1.67;;;;;;;;;;4946443;28;20071;-80
2021/06/17 08:04:53;;;;;;;2.85;1.50;;;;;;;;;;4948439;28;20133;-80
2021/06/17 08:07:20;;;;;;;3.78;2.00;;;;;;;;;;4933818;28;20527;-79
2021/06/17 08:09:46;;;;;;;3.70;1.85;;;;;;;;;;4950890;28;20074;-79
2021/06/17 08:12:12;;;;;;;2.40;1.75;;;;;;;;;;4948729;28;20520;-78
2021/06/17 08:14:39;;;;;;;3.75;1.92;;;;;;;;;;4955250;28;20073;-79
2021/06/17 08:17:05;;;;;;;3.33;1.98;;;;;;;;;;4952876;28;20039;-80
2021/06/17 08:19:32;;;;;;;4.70;1.90;;;;;;;;;;4946279;28;20071;-79
2021/06/17 08:21:59;;;;;;;3.88;2.10;;;;;;;;;;4949804;28;20062;-81
2021/06/17 08:24:26;;;;;;;3.67;1.77;;;;;;;;;;4950469;28;20636;-79
2021/06/17 08:26:53;;;;;;;2.80;1.60;;;;;;;;;;4947301;28;20275;-78
2021/06/17 08:29:19;;;;;;;3.10;1.75;;;;;;;;;;4946068;28;20059;-80
2021/06/17 08:31:46;;;;;;;2.65;1.67;;;;;;;;;;4947939;28;20138;-80
2021/06/17 08:34:12;;;;;;;2.65;1.80;;;;;;;;;;4950680;28;20055;-79
2021/06/17 08:36:39;;;;;;;3.00;1.92;;;;;;;;;;4957283;28;20062;-78
2021/06/17 08:39:05;;;;;;;5.20;1.67;;;;;;;;;;4939844;28;20062;-80
2021/06/17 08:41:32;;;;;;;5.97;1.85;;;;;;;;;;4947066;28;20119;-79
2021/06/17 08:43:59;;;;;;;3.53;1.98;;;;;;;;;;4948732;28;20163;-79
2021/06/17 08:46:26;;;;;;;3.83;2.17;;;;;;;;;;4950154;28;20165;-79
2021/06/17 08:48:52;;;;;;;2.88;2.00;;;;;;;;;;4946534;28;20067;-78
2021/06/17 08:51:19;;;;;;;2.80;2.10;;;;;;;;;;4943165;28;20087;-79
2021/06/17 08:53:48;;;;;;;4.20;2.15;;;;;;;;;;4946963;28;20468;-80
2021/06/17 08:56:14;;;;;;;3.22;1.90;;;;;;;;;;4952311;28;20137;-79
2021/06/17 08:58:40;;;;;;;3.42;2.30;;;;;;;;;;4953401;28;20066;-79
2021/06/17 09:01:10;;;;;;;2.47;1.83;;;;;;;;;;4954665;28;20066;-80
2021/06/17 09:03:41;;;;;;;3.67;2.00;;;;;;;;;;4940629;28;20066;-80
2021/06/17 09:06:07;;;;;;;4.07;2.45;;;;;;;;;;4948757;28;20058;-79
2021/06/17 09:08:34;;;;;;;3.33;2.20;;;;;;;;;;4949235;28;20660;-79
2021/06/17 09:11:05;;;;;;;3.33;2.50;;;;;;;;;;4949614;28;20066;-79
2021/06/17 09:13:33;;;;;;;5.13;2.42;;;;;;;;;;4945540;28;20059;-79
2021/06/17 09:16:00;;;;;;;2.85;2.10;;;;;;;;;;4945209;28;20090;-79
2021/06/17 09:18:30;;;;;;;3.60;2.17;;;;;;;;;;4947419;28;20067;-79
2021/06/17 09:21:02;;;;;;;3.40;2.28;;;;;;;;;;4955977;28;21253;-79
2021/06/17 09:23:33;;;;;;;3.85;2.25;;;;;;;;;;4944232;28;20074;-79
2021/06/17 09:26:06;;;;;;;3.40;2.33;;;;;;;;;;4955258;28;20066;-80
2021/06/17 09:28:52;;;;;;;5.38;2.30;;;;;;;;;;4940171;28;20074;-79
2021/06/17 09:31:22;;;;;;;4.53;2.38;;;;;;;;;;4937874;28;20063;-79
2021/06/17 09:33:49;;;;;;;3.67;2.38;;;;;;;;;;4946581;28;20055;-79
2021/06/17 09:36:16;;;;;;;2.83;2.10;;;;;;;;;;4957441;28;20110;-79
2021/06/17 09:38:47;;;;;;;4.38;2.33;;;;;;;;;;4956160;28;20055;-80
2021/06/17 09:41:29;;;;;;;3.72;2.47;;;;;;;;;;4948103;28;20097;-81
2021/06/17 09:43:55;;;;;;;3.70;2.40;;;;;;;;;;4959590;28;20403;-81
2021/06/17 09:46:22;;;;;;;5.22;2.30;;;;;;;;;;4943432;28;20082;-80
2021/06/17 09:48:51;;;;;;;4.25;2.42;;;;;;;;;;4947128;28;20499;-80
2021/06/17 09:51:21;;;;;;;2.63;2.05;;;;;;;;;;4933821;28;20107;-79
2021/06/17 09:53:48;;;;;;;4.75;2.58;;;;;;;;;;4922251;28;20094;-78
2021/06/17 09:56:15;;;;;;;3.75;2.25;;;;;;;;;;4944246;28;20058;-79
2021/06/17 09:58:42;;;;;;;3.53;2.50;;;;;;;;;;4945758;28;20094;-79
2021/06/17 10:01:17;;;;;;;5.10;2.42;;;;;;;;;;4944770;28;20059;-80
2021/06/17 10:03:59;;;;;;;4.53;2.75;;;;;;;;;;4943194;28;20728;-79
2021/06/17 10:06:26;;;;;;;3.83;2.50;;;;;;;;;;4946623;28;20125;-79
2021/06/17 10:08:53;;;;;;;3.30;2.50;;;;;;;;;;4942779;28;21212;-79
2021/06/17 10:11:21;;;;;;;4.70;2.65;;;;;;;;;;4944814;28;20075;-79
2021/06/17 10:13:48;;;;;;;3.47;2.80;;;;;;;;;;4944483;28;20145;-79
2021/06/17 10:16:18;;;;;;;4.22;2.65;;;;;;;;;;4945343;28;20047;-79
2021/06/17 10:18:45;;;;;;;5.45;2.80;;;;;;;;;;4945688;28;20145;-79
2021/06/17 10:21:14;;;;;;;4.43;2.92;;;;;;;;;;4947088;28;20124;-79
2021/06/17 10:23:43;;;;;;;4.32;2.78;;;;;;;;;;4948349;28;20071;-81
2021/06/17 10:26:09;;;;;;;4.88;3.35;;;;;;;;;;4950450;28;20589;-79
2021/06/17 10:28:40;;;;;;;4.03;2.92;;;;;;;;;;4951444;28;20142;-82
2021/06/17 10:31:07;;;;;;;5.03;3.10;;;;;;;;;;4955509;28;20126;-80
2021/06/17 10:33:38;;;;;;;4.38;2.95;;;;;;;;;;4945890;28;20067;-80
2021/06/17 10:36:22;;;;;;;4.40;3.08;;;;;;;;;;4954623;28;20141;-79
2021/06/17 10:39:09;;;;;;;6.47;3.00;;;;;;;;;;4945751;28;20519;-80
2021/06/17 10:41:44;;;;;;;4.93;3.17;;;;;;;;;;4940725;28;20036;-80
2021/06/17 10:44:32;;;;;;;6.30;2.88;;;;;;;;;;4945572;28;20065;-81
2021/06/17 10:46:59;;;;;;;5.72;3.20;;;;;;;;;;4941250;28;20231;-80
2021/06/17 10:49:44;;;;;;;4.47;2.78;;;;;;;;;;4945661;28;20530;-80
2021/06/17 10:52:24;;;;;;;3.95;3.10;;;;;;;;;;4945939;28;20279;-80
2021/06/17 10:55:20;;;;;;;5.32;3.53;;;;;;;;;;4946827;28;20867;-80
2021/06/17 11:00:25;;;;;;;3.20;2.72;;;;;;;;;;4951548;28;20051;-80
2021/06/17 11:03:17;;;;;;;4.03;3.05;;;;;;;;;;4949038;28;20109;-80
2021/06/17 11:05:52;;;;;;;4.88;2.83;;;;;;;;;;4946295;28;20058;-81
2021/06/17 11:08:22;;;;;;;7.80;2.88;;;;;;;;;;4943607;28;20133;-80
2021/06/17 11:10:53;;;;;;;5.30;3.22;;;;;;;;;;4953135;28;20079;-81
2021/06/17 11:13:26;;;;;;;5.68;3.00;;;;;;;;;;4946719;28;20168;-80
2021/06/17 11:15:53;;;;;;;5.60;2.90;;;;;;;;;;4950922;28;20511;-80
2021/06/17 11:18:39;;;;;;;3.97;3.00;;;;;;;;;;4945607;28;20141;-81
2021/06/17 11:21:05;;;;;;;5.25;2.90;;;;;;;;;;4945140;28;20500;-80
2021/06/17 11:23:32;;;;;;;4.70;3.00;;;;;;;;;;4949444;28;20778;-78
2021/06/17 11:26:02;;;;;;;3.85;2.83;;;;;;;;;;4959753;28;20067;-77
2021/06/17 11:28:47;;;;;;;4.82;3.20;;;;;;;;;;4949721;28;20067;-79
2021/06/17 11:31:33;;;;;;;4.50;3.53;;;;;;;;;;4948816;28;20262;-79
2021/06/17 11:34:00;;;;;;;5.13;3.03;;;;;;;;;;4946987;28;22028;-78
2021/06/17 11:36:27;;;;;;;3.47;3.00;;;;;;;;;;4941580;28;20063;-78
2021/06/17 11:38:54;;;;;;;6.03;2.95;;;;;;;;;;4949131;28;21330;-79
2021/06/17 11:41:21;;;;;;;5.93;3.40;;;;;;;;;;4959023;28;20081;-78
2021/06/17 11:43:52;;;;;;;4.40;3.15;;;;;;;;;;4950106;28;20113;-78
2021/06/17 11:46:22;;;;;;;5.85;3.47;;;;;;;;;;4956138;28;20038;-79
2021/06/17 11:48:50;;;;;;;5.93;3.40;;;;;;;;;;4950295;28;20610;-79
2021/06/17 11:51:16;;;;;;;4.57;3.08;;;;;;;;;;4948567;28;20063;-78
2021/06/17 11:53:48;;;;;;;5.18;3.20;;;;;;;;;;4950615;28;20106;-79
2021/06/17 11:56:23;;;;;;;4.85;3.35;;;;;;;;;;4949708;28;20059;-78
2021/06/17 11:58:49;;;;;;;5.20;3.63;;;;;;;;;;4948950;28;20090;-78
2021/06/17 12:01:16;;;;;;;4.00;3.20;;;;;;;;;;4947272;28;20074;-80
2021/06/17 12:03:57;;;;;;;4.97;3.40;;;;;;;;;;4946311;28;20066;-79
2021/06/17 12:06:23;;;;;;;6.88;3.72;;;;;;;;;;4949871;28;20051;-79
2021/06/17 12:09:22;;;;;;;5.25;3.67;;;;;;;;;;4947086;28;20069;-80
2021/06/17 12:11:49;;;;;;;4.68;3.33;;;;;;;;;;4927081;28;20618;-78
2021/06/17 12:14:18;;;;;;;4.60;3.70;;;;;;;;;;4941562;28;20036;-79
2021/06/17 12:16:44;;;;;;;4.63;3.50;;;;;;;;;;4936446;28;20066;-79
2021/06/17 12:19:16;;;;;;;4.65;3.70;;;;;;;;;;4945532;28;20138;-79
2021/06/17 12:21:46;;;;;;;6.20;4.03;;;;;;;;;;4927795;28;20047;-79
2021/06/17 12:24:15;;;;;;;4.85;3.40;;;;;;;;;;4951780;28;20062;-79
2021/06/17 12:26:43;;;;;;;5.53;3.55;;;;;;;;;;4945941;28;20083;-79
2021/06/17 12:29:11;;;;;;;4.22;3.75;;;;;;;;;;4947226;28;20507;-79
2021/06/17 12:31:40;;;;;;;4.68;3.92;;;;;;;;;;4945182;28;20522;-82
2021/06/17 12:34:09;;;;;;;4.93;3.85;;;;;;;;;;4946887;28;20106;-77
2021/06/17 12:36:36;;;;;;;5.55;3.50;;;;;;;;;;4947488;28;20480;-77
2021/06/17 12:39:10;;;;;;;5.82;3.90;;;;;;;;;;4927885;29;20050;-77
2021/06/17 12:41:41;;;;;;;4.68;3.78;;;;;;;;;;4947202;28;20133;-80
2021/06/17 12:44:10;;;;;;;4.03;3.58;;;;;;;;;;4949798;28;20120;-77
2021/06/17 12:46:38;;;;;;;4.80;3.80;;;;;;;;;;4947336;28;20822;-77
2021/06/17 12:49:27;;;;;;;4.93;3.60;;;;;;;;;;4945203;28;20518;-77
2021/06/17 12:54:31;;;;;;;4.82;3.78;;;;;;;;;;4956248;28;20082;-76
2021/06/17 12:57:03;;;;;;;5.18;4.05;;;;;;;;;;4945757;28;20087;-77
2021/06/17 12:59:36;;;;;;;5.80;4.25;;;;;;;;;;4949709;28;20062;-77
2021/06/17 13:02:02;;;;;;;5.00;3.97;;;;;;;;;;4951092;28;20040;-78
2021/06/17 13:04:29;;;;;;;4.28;3.88;;;;;;;;;;4936343;28;20070;-77
2021/06/17 13:06:56;;;;;;;5.13;4.15;;;;;;;;;;4938795;28;20067;-77
2021/06/17 13:09:29;;;;;;;5.63;3.90;;;;;;;;;;4944562;28;20039;-75
2021/06/17 13:12:12;;;;;;;5.75;4.10;;;;;;;;;;4940473;28;22250;-76
2021/06/17 13:14:59;;;;;;;5.40;4.15;;;;;;;;;;4944915;28;20067;-77
2021/06/17 13:17:26;;;;;;;7.47;4.40;;;;;;;;;;4944252;28;20067;-76
2021/06/17 13:19:54;;;;;;;6.43;4.53;;;;;;;;;;4939327;28;20090;-77
2021/06/17 13:22:20;;;;;;;5.45;4.30;;;;;;;;;;4956328;28;20518;-77
2021/06/17 13:24:47;;;;;;;5.68;4.20;;;;;;;;;;4944961;28;20074;-77
2021/06/17 13:27:20;;;;;;;5.68;4.10;;;;;;;;;;4948591;28;20698;-76
2021/06/17 13:29:54;;;;;;;8.10;4.38;;;;;;;;;;4943749;28;20063;-76
2021/06/17 13:32:23;;;;;;;13.55;4.72;;;;;;;;;;4954499;28;20776;-77
2021/06/17 13:34:51;;;;;;;5.97;4.28;;;;;;;;;;4927421;28;20118;-76
2021/06/17 13:37:18;;;;;;;5.65;4.70;;;;;;;;;;4953341;28;20065;-77
2021/06/17 13:39:45;;;;;;;5.57;4.45;;;;;;;;;;4920320;28;20130;-77
2021/06/17 13:42:12;;;;;;;7.60;4.63;;;;;;;;;;4924870;28;20165;-77
2021/06/17 13:44:38;;;;;;;7.05;4.72;;;;;;;;;;4914556;28;20761;-77
2021/06/17 13:47:07;;;;;;;6.22;5.05;;;;;;;;;;4947136;28;20133;-79
2021/06/17 13:49:33;;;;;;;5.63;4.47;;;;;;;;;;4950423;28;20066;-77
2021/06/17 13:52:00;;;;;;;5.00;4.50;;;;;;;;;;4945364;28;20071;-77
2021/06/17 13:54:27;;;;;;;5.75;4.65;;;;;;;;;;4946449;28;20569;-76
2021/06/17 13:56:53;;;;;;;6.15;4.65;;;;;;;;;;4946012;28;20865;-77
2021/06/17 13:59:20;;;;;;;5.82;4.85;;;;;;;;;;4948492;28;20063;-78
2021/06/17 14:01:47;;;;;;;5.32;4.82;;;;;;;;;;4927964;28;20059;-77
2021/06/17 14:04:17;;;;;;;6.72;4.88;;;;;;;;;;4930516;28;20071;-77
2021/06/17 14:06:47;;;;;;;5.68;4.72;;;;;;;;;;4945150;28;20063;-77
2021/06/17 14:09:14;;;;;;;5.70;5.00;;;;;;;;;;4946661;28;20071;-77
2021/06/17 14:11:41;;;;;;;6.40;4.80;;;;;;;;;;4949295;28;20066;-77
2021/06/17 14:14:08;;;;;;;5.80;5.05;;;;;;;;;;4934142;28;20563;-77
2021/06/17 14:16:37;;;;;;;5.35;4.65;;;;;;;;;;4934888;28;20109;-76
2021/06/17 14:19:04;;;;;;;6.40;5.05;;;;;;;;;;4945224;28;20475;-77
2021/06/17 14:21:30;;;;;;;6.60;4.82;;;;;;;;;;4942354;28;20071;-76
2021/06/17 14:23:56;;;;;;;5.32;4.82;;;;;;;;;;4953170;28;20451;-76
2021/06/17 14:26:23;;;;;;;5.32;4.82;;;;;;;;;;4926369;28;20134;-77
2021/06/17 14:28:52;;;;;;;6.88;5.10;;;;;;;;;;4934460;28;20077;-77
2021/06/17 14:31:18;;;;;;;5.30;4.70;;;;;;;;;;4944965;28;20543;-77
2021/06/17 14:33:45;;;;;;;5.68;5.15;;;;;;;;;;4943875;28;20050;-77
2021/06/17 14:36:12;;;;;;;6.10;5.03;;;;;;;;;;4943174;28;20055;-75
2021/06/17 14:38:41;;;;;;;5.50;4.88;;;;;;;;;;4935923;28;20064;-77
2021/06/17 14:41:08;;;;;;;6.45;5.00;;;;;;;;;;4948082;28;20067;-77
2021/06/17 14:43:37;;;;;;;6.43;5.00;;;;;;;;;;4940111;28;20114;-77
2021/06/17 14:46:03;;;;;;;6.35;5.25;;;;;;;;;;4950301;28;20090;-77
2021/06/17 14:48:30;;;;;;;5.25;4.75;;;;;;;;;;4946452;28;20054;-77
2021/06/17 14:50:56;;;;;;;6.40;4.95;;;;;;;;;;4942281;28;20676;-77
2021/06/17 14:53:23;;;;;;;6.38;5.10;;;;;;;;;;4950615;28;20055;-77
2021/06/17 14:55:49;;;;;;;6.00;5.40;;;;;;;;;;4945351;28;20144;-78
2021/06/17 14:58:15;;;;;;;6.20;4.97;;;;;;;;;;4946347;28;20562;-76
2021/06/17 15:00:42;;;;;;;5.40;4.57;;;;;;;;;;4956731;28;20566;-77